Time;durP1;ratioP1;P1;durP2;ratioP2;P2;SDS_P1;SDS_P2;PMS_P1;PMS_P2;Temp;Humidity;BMP_temperature;BMP_pressure;BME280_temperature;BME280_humidity;BME280_pressure;Samples;Min_cycle;Max_cycle;Signal;HPM_P1;HPM_P2
2023/04/20 00:10:23;;;;;;;22.30;6.67;;;;;;;13.34;100.00;99472.38;31343136;28;20052;-86
2023/04/20 00:25:25;;;;;;;20.07;6.83;;;;;;;13.18;100.00;99455.09;31360013;28;20041;-85
2023/04/20 00:40:27;;;;;;;24.63;7.17;;;;;;;13.44;100.00;99443.94;31334813;28;20053;-84
2023/04/20 00:55:30;;;;;;;24.67;7.50;;;;;;;13.25;100.00;99421.31;31351817;28;20096;-85
2023/04/20 01:10:42;;;;;;;31.00;8.43;;;;;;;13.34;100.00;99404.22;31327791;28;20069;-84
2023/04/20 01:25:44;;;;;;;18.83;7.40;;;;;;;13.12;100.00;99366.19;31323202;28;20048;-84
2023/04/20 01:40:46;;;;;;;29.73;8.33;;;;;;;13.25;100.00;99373.03;31360218;28;20090;-86
2023/04/20 01:55:48;;;;;;;27.00;9.00;;;;;;;13.09;100.00;99381.47;31365727;28;20053;-86
2023/04/20 02:10:50;;;;;;;28.03;8.23;;;;;;;13.00;100.00;99351.47;31352711;28;20476;-84
2023/04/20 02:25:52;;;;;;;27.93;9.37;;;;;;;13.10;100.00;99344.06;31303460;28;20107;-85
2023/04/20 02:40:54;;;;;;;39.23;10.43;;;;;;;13.18;100.00;99346.09;31322821;28;20052;-85
2023/04/20 02:56:01;;;;;;;33.33;11.37;;;;;;;13.18;100.00;99354.25;31336868;28;20092;-84
2023/04/20 03:11:03;;;;;;;41.43;10.57;;;;;;;13.15;100.00;99357.88;31335776;28;20535;-85
2023/04/20 03:26:05;;;;;;;44.20;12.40;;;;;;;13.08;100.00;99343.75;31355429;28;20057;-84
2023/04/20 03:41:07;;;;;;;41.40;11.90;;;;;;;13.11;100.00;99343.63;31328298;28;20041;-86
2023/04/20 03:56:09;;;;;;;30.77;10.70;;;;;;;13.19;100.00;99347.59;31350370;28;20555;-82
2023/04/20 04:11:11;;;;;;;37.20;11.90;;;;;;;13.28;100.00;99333.19;31324876;28;20558;-87
2023/04/20 04:26:13;;;;;;;31.37;12.00;;;;;;;13.23;100.00;99333.81;31335622;28;20087;-85
2023/04/20 04:41:15;;;;;;;27.30;12.63;;;;;;;12.93;100.00;99327.25;31347112;28;20453;-85
2023/04/20 04:56:19;;;;;;;32.00;11.83;;;;;;;12.95;100.00;99327.56;31328286;28;20532;-86
2023/04/20 05:11:21;;;;;;;33.57;11.87;;;;;;;12.99;100.00;99323.47;31343359;28;20052;-87
2023/04/20 05:26:23;;;;;;;26.07;11.03;;;;;;;12.96;100.00;99331.81;31356630;28;20052;-87
2023/04/20 05:41:27;;;;;;;28.17;11.73;;;;;;;12.85;100.00;99323.31;31358055;28;20045;-84
2023/04/20 05:56:30;;;;;;;25.23;9.57;;;;;;;12.92;100.00;99325.75;31312446;28;20068;-84
2023/04/20 06:11:32;;;;;;;19.93;8.23;;;;;;;12.90;100.00;99331.66;31329102;28;20048;-79
2023/04/20 06:26:33;;;;;;;60.10;24.73;;;;;;;13.10;100.00;99323.03;31362175;28;20389;-80
2023/04/20 06:41:36;;;;;;;22.20;9.77;;;;;;;13.27;100.00;99316.09;31344644;28;20040;-85
2023/04/20 06:56:39;;;;;;;12.77;6.13;;;;;;;13.23;100.00;99326.38;31335298;28;20095;-83
2023/04/20 07:11:41;;;;;;;13.77;7.03;;;;;;;13.37;100.00;99313.38;31364776;28;20057;-84
2023/04/20 07:26:43;;;;;;;9.67;5.17;;;;;;;13.89;100.00;99298.56;31349644;28;20056;-83
2023/04/20 07:41:47;;;;;;;15.60;6.33;;;;;;;14.15;100.00;99305.16;31308322;28;20045;-84
2023/04/20 07:56:49;;;;;;;13.33;6.77;;;;;;;14.65;100.00;99303.53;31194701;28;20506;-85
2023/04/20 08:11:51;;;;;;;8.43;5.20;;;;;;;15.38;100.00;99312.38;31210111;28;20049;-85
2023/04/20 08:26:53;;;;;;;20.43;8.20;;;;;;;17.73;100.00;99322.63;31231753;28;20124;-81
2023/04/20 08:41:56;;;;;;;43.17;17.80;;;;;;;17.58;100.00;99357.63;31255393;28;20141;-80
2023/04/20 08:56:58;;;;;;;62.30;24.57;;;;;;;16.96;100.00;99356.22;31319537;28;20053;-87
2023/04/20 09:12:05;;;;;;;58.60;26.03;;;;;;;16.38;100.00;99368.81;31318627;28;20464;-83
2023/04/20 09:27:16;;;;;;;51.17;23.97;;;;;;;16.63;100.00;99351.78;31348230;28;20106;-77
2023/04/20 09:42:19;;;;;;;44.27;18.23;;;;;;;16.73;100.00;99332.47;31324907;28;20120;-83
2023/04/20 09:57:23;;;;;;;22.73;9.33;;;;;;;16.90;100.00;99317.00;31247098;28;20061;-82
2023/04/20 10:12:25;;;;;;;20.57;9.23;;;;;;;16.71;100.00;99330.22;31206888;28;20049;-81
2023/04/20 10:27:27;;;;;;;17.97;6.63;;;;;;;16.94;100.00;99353.19;31239242;28;20049;-80
2023/04/20 10:42:41;;;;;;;9.57;4.40;;;;;;;16.83;100.00;99369.47;31252535;28;20057;-81
2023/04/20 10:57:47;;;;;;;6.87;4.53;;;;;;;16.87;100.00;99370.03;31288297;28;20058;-82
2023/04/20 11:12:49;;;;;;;10.67;5.37;;;;;;;17.41;100.00;99373.19;31354603;28;20044;-82
2023/04/20 11:27:51;;;;;;;8.93;4.03;;;;;;;18.01;100.00;99364.81;31296504;28;20053;-81
2023/04/20 11:42:53;;;;;;;9.40;5.05;;;;;;;18.73;100.00;99339.09;31310896;28;20480;-82
2023/04/20 11:57:56;;;;;;;14.07;6.07;;;;;;;19.19;100.00;99307.75;31361442;28;20075;-82
2023/04/20 12:13:02;;;;;;;11.68;6.45;;;;;;;18.62;100.00;99320.56;31331256;28;20482;-85
2023/04/20 12:28:06;;;;;;;10.93;6.00;;;;;;;18.37;100.00;99297.41;31327998;28;20484;-82
2023/04/20 12:43:08;;;;;;;12.07;6.50;;;;;;;18.52;100.00;99291.72;31347621;28;20048;-83
2023/04/20 12:58:10;;;;;;;16.50;6.38;;;;;;;18.49;100.00;99298.19;31206002;28;20590;-80
2023/04/20 13:13:15;;;;;;;6.72;3.78;;;;;;;18.15;100.00;99286.28;31231712;28;20057;-82
2023/04/20 13:28:21;;;;;;;9.83;5.17;;;;;;;18.04;100.00;99275.94;31245020;28;20494;-80
2023/04/20 13:43:23;;;;;;;7.20;4.00;;;;;;;17.66;100.00;99284.66;31219139;28;20433;-78
2023/04/20 13:58:27;;;;;;;5.63;3.37;;;;;;;17.53;100.00;99279.50;31341307;28;20063;-78
2023/04/20 14:13:29;;;;;;;7.50;4.23;;;;;;;17.22;100.00;99274.75;31321940;28;20037;-78
2023/04/20 14:28:52;;;;;;;9.37;3.93;;;;;;;17.19;100.00;99308.63;31337225;28;20057;-80
2023/04/20 14:43:53;;;;;;;7.77;3.57;;;;;;;16.97;100.00;99300.16;31323519;28;20045;-82
2023/04/20 14:58:58;;;;;;;11.80;4.70;;;;;;;16.88;100.00;99305.75;31318051;28;20051;-77
2023/04/20 15:14:00;;;;;;;7.93;6.10;;;;;;;16.97;100.00;99308.38;31316730;28;20077;-83
2023/04/20 15:29:02;;;;;;;14.13;8.23;;;;;;;16.59;100.00;99306.59;31357471;28;20053;-84
2023/04/20 15:44:04;;;;;;;10.10;6.90;;;;;;;15.88;100.00;99294.88;31360493;28;20061;-82
2023/04/20 15:59:07;;;;;;;13.53;7.27;;;;;;;15.43;100.00;99309.00;31368467;28;20054;-85
2023/04/20 16:14:09;;;;;;;12.40;6.57;;;;;;;15.56;100.00;99317.72;31357365;28;20041;-84
2023/04/20 16:29:12;;;;;;;33.57;16.73;;;;;;;15.34;100.00;99321.53;31355082;28;20053;-80
2023/04/20 16:44:14;;;;;;;14.03;8.67;;;;;;;15.22;100.00;99330.00;31394191;28;20046;-83
2023/04/20 16:59:17;;;;;;;25.47;12.57;;;;;;;15.02;100.00;99330.59;31328444;28;20056;-78
2023/04/20 17:14:19;;;;;;;31.50;14.07;;;;;;;14.72;100.00;99346.13;31325181;28;20111;-78
2023/04/20 17:29:21;;;;;;;31.50;15.70;;;;;;;14.80;100.00;99357.47;31359371;28;20097;-80
2023/04/20 17:44:23;;;;;;;68.80;30.37;;;;;;;14.85;100.00;99362.31;31328492;28;20061;-83
2023/04/20 17:59:26;;;;;;;33.97;14.90;;;;;;;14.75;100.00;99352.66;31346885;28;20057;-79
2023/04/20 18:14:31;;;;;;;33.37;13.83;;;;;;;14.67;100.00;99344.78;31326499;28;20052;-84
2023/04/20 18:29:34;;;;;;;34.50;14.23;;;;;;;14.59;100.00;99338.16;31357053;28;20454;-84
2023/04/20 18:44:36;;;;;;;35.47;13.63;;;;;;;14.59;100.00;99327.25;31294407;28;20076;-80
2023/04/20 18:59:38;;;;;;;30.53;13.27;;;;;;;14.45;100.00;99322.44;31338229;28;20476;-81
2023/04/20 19:14:40;;;;;;;56.67;23.23;;;;;;;14.65;100.00;99308.97;31371003;28;20098;-80
2023/04/20 19:29:45;;;;;;;46.00;15.93;;;;;;;14.61;100.00;99302.19;31352420;28;20057;-80
2023/04/20 19:44:47;;;;;;;42.88;14.10;;;;;;;14.71;100.00;99306.38;31381177;28;20059;-83
2023/04/20 19:59:53;;;;;;;27.27;12.87;;;;;;;14.85;100.00;99305.69;31341481;28;20053;-85
2023/04/20 20:14:59;;;;;;;25.87;11.27;;;;;;;14.85;100.00;99315.84;31330021;28;20041;-85
2023/04/20 20:30:03;;;;;;;23.10;10.80;;;;;;;14.80;100.00;99302.84;31367732;28;20116;-87
2023/04/20 20:45:11;;;;;;;19.90;8.53;;;;;;;14.62;100.00;99303.72;31311900;28;20062;-87
2023/04/20 21:00:32;;;;;;;30.73;12.50;;;;;;;14.56;100.00;99292.66;31327897;28;20056;-87
2023/04/20 21:15:36;;;;;;;20.77;7.67;;;;;;;14.34;100.00;99278.50;31364928;28;20068;-88
2023/04/20 21:30:38;;;;;;;10.73;6.50;;;;;;;14.44;100.00;99249.19;31355728;28;20143;-83
2023/04/20 21:45:40;;;;;;;13.67;5.93;;;;;;;14.35;100.00;99244.53;31303138;28;20111;-78
2023/04/20 22:00:42;;;;;;;15.93;7.07;;;;;;;14.58;100.00;99241.06;31332161;28;20055;-78
2023/04/20 22:15:45;;;;;;;15.67;7.47;;;;;;;14.60;100.00;99233.16;31355994;28;20986;-77
2023/04/20 22:30:50;;;;;;;21.13;8.13;;;;;;;14.38;100.00;99229.19;31349961;28;20052;-78
2023/04/20 22:45:53;;;;;;;16.40;7.17;;;;;;;14.57;100.00;99209.50;31316263;28;20041;-78
2023/04/20 23:00:55;;;;;;;15.50;8.30;;;;;;;14.66;100.00;99195.78;31360001;28;20176;-79
2023/04/20 23:15:57;;;;;;;16.00;8.23;;;;;;;14.48;100.00;99190.44;31317459;28;20549;-78
2023/04/20 23:30:59;;;;;;;13.20;6.97;;;;;;;14.41;100.00;99179.88;31349654;28;20071;-78
2023/04/20 23:46:01;;;;;;;14.17;6.93;;;;;;;14.55;100.00;99183.88;31338783;28;20061;-76
